createdAt,value
2022-11-22T00:03:31.599Z,2.45
2022-11-22T00:08:33.412Z,1.45
2022-11-22T00:13:34.848Z,1.35
2022-11-22T00:18:36.349Z,1.33
2022-11-22T00:23:37.773Z,1.65
2022-11-22T00:28:39.792Z,1.48
2022-11-22T00:33:41.241Z,1.52
2022-11-22T00:38:43.836Z,1.85
2022-11-22T00:43:45.267Z,1.60
2022-11-22T00:48:46.700Z,2.17
2022-11-22T00:53:48.151Z,2.80
2022-11-22T00:58:49.666Z,1.80
2022-11-22T01:03:51.028Z,1.45
2022-11-22T01:08:52.486Z,1.55
2022-11-22T01:13:53.863Z,1.92
2022-11-22T01:18:55.322Z,2.03
2022-11-22T01:23:56.663Z,1.80
2022-11-22T01:28:58.054Z,2.20
2022-11-22T01:34:00.000Z,1.83
2022-11-22T01:39:01.493Z,2.08
2022-11-22T01:44:20.106Z,3.05
2022-11-22T01:49:31.227Z,2.20
2022-11-22T01:54:36.076Z,2.30
2022-11-22T01:59:44.522Z,2.38
2022-11-22T02:04:47.278Z,6.82
2022-11-22T02:09:51.896Z,2.88
2022-11-22T02:14:54.082Z,2.55
2022-11-22T02:19:55.811Z,3.20
2022-11-22T02:25:03.149Z,4.40
2022-11-22T02:30:05.127Z,5.28
2022-11-22T02:35:20.133Z,4.05
2022-11-22T02:40:22.573Z,3.80
2022-11-22T02:45:24.259Z,3.58
2022-11-22T02:50:25.607Z,4.30
2022-11-22T02:55:26.970Z,3.38
2022-11-22T03:00:28.618Z,4.18
2022-11-22T03:05:30.001Z,3.45
2022-11-22T03:10:31.561Z,5.13
2022-11-22T03:15:32.953Z,3.53
2022-11-22T03:20:34.368Z,3.45
2022-11-22T03:25:39.163Z,4.18
2022-11-22T03:46:20.630Z,3.80
2022-11-22T03:51:21.990Z,4.25
2022-11-22T03:56:23.339Z,4.47
2022-11-22T04:01:24.954Z,4.45
2022-11-22T04:06:26.355Z,4.57
2022-11-22T04:11:27.895Z,5.32
2022-11-22T04:16:29.237Z,6.43
2022-11-22T04:21:36.349Z,7.20
2022-11-22T04:26:37.763Z,7.38
2022-11-22T04:31:57.571Z,7.90
2022-11-22T04:36:59.329Z,8.18
2022-11-22T04:42:19.568Z,8.20
2022-11-22T04:47:39.693Z,8.10
2022-11-22T05:03:15.365Z,10.07
2022-11-22T05:08:16.883Z,8.85
2022-11-22T05:13:20.036Z,8.85
2022-11-22T05:18:23.066Z,8.70
2022-11-22T05:23:43.413Z,8.48
2022-11-22T05:28:45.050Z,8.52
2022-11-22T05:33:46.595Z,8.68
2022-11-22T05:38:48.944Z,8.75
2022-11-22T05:43:50.860Z,8.05
2022-11-22T05:48:53.479Z,8.02
2022-11-22T05:53:59.107Z,7.20
2022-11-22T05:59:07.245Z,6.82
2022-11-22T06:04:08.786Z,7.75
2022-11-22T06:09:10.221Z,7.25
2022-11-22T06:14:11.700Z,6.18
2022-11-22T06:19:13.789Z,6.05
2022-11-22T06:24:15.361Z,5.78
2022-11-22T06:29:16.971Z,6.90
2022-11-22T06:34:18.506Z,4.65
2022-11-22T06:39:20.013Z,5.03
2022-11-22T06:44:21.882Z,3.50
2022-11-22T06:49:23.368Z,4.65
2022-11-22T06:54:24.765Z,3.80
2022-11-22T06:59:26.124Z,3.45
2022-11-22T07:04:27.848Z,4.40
2022-11-22T07:09:29.553Z,3.47
2022-11-22T07:14:31.584Z,4.80
2022-11-22T07:19:33.335Z,4.38
2022-11-22T07:24:34.736Z,5.13
2022-11-22T07:29:36.109Z,4.32
2022-11-22T07:34:37.470Z,4.97
2022-11-22T07:39:38.970Z,4.57
2022-11-22T07:44:40.321Z,4.13
2022-11-22T07:49:41.670Z,4.00
2022-11-22T07:54:43.066Z,3.45
2022-11-22T07:59:44.403Z,6.57
2022-11-22T08:04:46.363Z,5.50
2022-11-22T08:09:47.687Z,6.00
2022-11-22T08:14:49.042Z,5.63
2022-11-22T08:19:53.387Z,5.10
2022-11-22T08:24:54.763Z,2.85
2022-11-22T08:29:56.104Z,2.58
2022-11-22T08:34:57.447Z,2.35
2022-11-22T08:39:58.816Z,3.50
2022-11-22T08:45:00.169Z,1.92
2022-11-22T08:50:01.497Z,1.83
2022-11-22T08:55:02.939Z,2.65
2022-11-22T09:00:06.208Z,2.58
2022-11-22T09:05:07.905Z,1.20
2022-11-22T09:10:09.454Z,1.27
2022-11-22T09:15:11.093Z,2.40
2022-11-22T09:20:12.747Z,0.80
2022-11-22T09:25:14.107Z,1.00
2022-11-22T09:30:15.739Z,2.28
2022-11-22T09:35:20.031Z,1.08
2022-11-22T09:40:21.408Z,1.55
2022-11-22T09:45:52.576Z,1.75
2022-11-22T09:51:20.019Z,0.80
2022-11-22T09:56:24.797Z,1.45
2022-11-22T10:01:32.662Z,1.35
2022-11-22T10:06:37.492Z,0.77
2022-11-22T10:11:49.320Z,1.23
2022-11-22T10:17:07.011Z,1.65
2022-11-22T10:27:16.682Z,0.67
2022-11-22T10:32:18.238Z,0.65
2022-11-22T10:37:34.230Z,0.57
2022-11-22T10:42:57.636Z,1.33
2022-11-22T10:48:08.685Z,1.25
2022-11-22T10:53:22.786Z,0.93
2022-11-22T10:59:04.313Z,1.05
2022-11-22T11:04:08.000Z,2.13
2022-11-22T11:15:34.083Z,0.60
2022-11-22T11:20:39.098Z,0.55
2022-11-22T11:25:43.342Z,0.80
2022-11-22T11:31:07.877Z,1.65
2022-11-22T11:36:21.965Z,0.65
2022-11-22T11:41:32.288Z,0.55
2022-11-22T11:46:36.821Z,0.52
2022-11-22T11:51:41.275Z,0.70
2022-11-22T11:57:03.527Z,0.60
2022-11-22T12:02:15.080Z,0.70
2022-11-22T12:07:46.719Z,1.17
2022-11-22T12:13:04.040Z,0.82
2022-11-22T12:23:26.925Z,0.40
2022-11-22T12:28:29.181Z,0.60
2022-11-22T12:33:37.211Z,1.90
2022-11-22T12:38:44.560Z,0.50
2022-11-22T12:43:53.308Z,0.88
2022-11-22T12:49:33.038Z,0.40
2022-11-22T12:54:44.536Z,0.50
2022-11-22T12:59:53.300Z,1.85
2022-11-22T13:05:01.624Z,0.30
2022-11-22T13:10:11.391Z,1.80
2022-11-22T13:15:16.839Z,0.30
2022-11-22T13:20:21.589Z,0.30
2022-11-22T13:25:41.573Z,0.80
2022-11-22T13:31:07.391Z,0.50
2022-11-22T13:36:26.916Z,1.58
2022-11-22T13:41:37.144Z,0.43
2022-11-22T13:47:00.503Z,0.50
2022-11-22T13:52:25.904Z,0.50
2022-11-22T13:57:35.578Z,5.40
2022-11-22T14:02:37.858Z,1.05
2022-11-22T14:07:40.775Z,0.47
2022-11-22T14:12:54.345Z,0.20
2022-11-22T14:18:24.821Z,0.40
2022-11-22T14:23:50.642Z,0.40
2022-11-22T14:29:16.867Z,0.73
2022-11-22T14:34:24.581Z,0.60
2022-11-22T14:39:44.212Z,0.30
2022-11-22T14:44:46.832Z,0.50
2022-11-22T14:49:50.457Z,0.40
2022-11-22T14:55:00.549Z,0.52
2022-11-22T15:00:22.431Z,0.32
2022-11-22T15:09:23.875Z,0.20
2022-11-22T15:11:46.012Z,0.28
2022-11-22T16:00:26.705Z,0.37
2022-11-22T16:06:08.978Z,0.22
2022-11-22T16:10:56.730Z,0.28
2022-11-22T16:16:10.264Z,0.30
2022-11-22T16:21:11.591Z,0.82
2022-11-22T16:26:19.405Z,0.75
2022-11-22T16:31:27.294Z,0.10
2022-11-22T16:36:29.917Z,0.20
2022-11-22T16:41:31.347Z,0.28
2022-11-22T16:46:32.712Z,0.35
2022-11-22T16:51:34.254Z,0.30
2022-11-22T16:56:35.604Z,0.52
2022-11-22T17:01:37.619Z,0.20
2022-11-22T17:06:38.972Z,0.38
2022-11-22T17:11:43.150Z,0.40
2022-11-22T17:16:48.505Z,0.30
2022-11-22T17:21:49.880Z,0.30
2022-11-22T17:26:51.222Z,0.55
2022-11-22T17:31:52.541Z,0.50
2022-11-22T17:36:53.862Z,0.50
2022-11-22T17:41:55.225Z,0.60
2022-11-22T17:46:56.561Z,0.30
2022-11-22T17:51:57.953Z,0.38
2022-11-22T17:56:59.364Z,0.35
2022-11-22T18:02:00.688Z,0.60
2022-11-22T18:07:02.032Z,0.63
2022-11-22T18:12:03.593Z,0.60
2022-11-22T18:17:04.941Z,0.50
2022-11-22T18:22:06.291Z,0.80
2022-11-22T18:27:07.817Z,0.52
2022-11-22T18:32:09.790Z,0.95
2022-11-22T18:37:11.173Z,1.05
2022-11-22T18:42:15.153Z,0.55
2022-11-22T18:47:16.965Z,0.60
2022-11-22T18:52:18.414Z,0.60
2022-11-22T18:57:19.817Z,0.73
2022-11-22T19:02:25.659Z,0.85
2022-11-22T19:07:27.047Z,1.02
2022-11-22T19:12:28.994Z,1.63
2022-11-22T19:17:30.337Z,1.58
2022-11-22T19:22:31.658Z,1.52
2022-11-22T19:27:33.003Z,1.73
2022-11-22T19:32:34.358Z,1.10
2022-11-22T19:37:36.794Z,1.10
2022-11-22T19:42:39.851Z,0.93
2022-11-22T19:47:41.173Z,1.70
2022-11-22T19:52:42.594Z,1.35
2022-11-22T19:57:43.970Z,1.25
2022-11-22T20:02:45.347Z,1.25
2022-11-22T20:07:46.781Z,1.63
2022-11-22T20:12:49.543Z,1.25
2022-11-22T20:17:50.948Z,0.90
2022-11-22T20:22:52.300Z,1.40
2022-11-22T20:27:53.647Z,2.25
2022-11-22T20:32:54.979Z,2.35
2022-11-22T20:37:56.357Z,3.22
2022-11-22T20:42:57.713Z,3.22
2022-11-22T20:47:59.068Z,2.85
2022-11-22T20:53:00.413Z,3.25
2022-11-22T20:58:01.757Z,2.08
2022-11-22T21:03:03.126Z,2.10
2022-11-22T21:08:05.435Z,2.25
2022-11-22T21:13:07.062Z,2.42
2022-11-22T21:18:24.626Z,2.22
2022-11-22T21:23:26.797Z,2.33
2022-11-22T21:28:28.285Z,2.50
2022-11-22T21:33:32.661Z,2.08
2022-11-22T21:38:35.029Z,2.25
2022-11-22T21:43:36.416Z,2.85
2022-11-22T21:48:37.839Z,2.13
2022-11-22T21:53:39.205Z,1.73
2022-11-22T21:58:42.172Z,1.90
2022-11-22T22:03:43.519Z,1.60
2022-11-22T22:08:44.902Z,1.88
2022-11-22T22:13:46.318Z,1.48
2022-11-22T22:18:47.729Z,1.65
2022-11-22T22:23:49.250Z,1.35
2022-11-22T22:28:52.426Z,1.60
2022-11-22T22:33:55.436Z,2.00
2022-11-22T22:38:56.787Z,1.60
2022-11-22T22:43:58.159Z,2.15
2022-11-22T22:49:00.141Z,2.25
2022-11-22T22:54:01.623Z,2.58
2022-11-22T22:59:05.113Z,2.28
2022-11-22T23:04:06.638Z,3.00
2022-11-22T23:09:10.682Z,2.33
2022-11-22T23:14:13.611Z,1.75
2022-11-22T23:19:15.182Z,1.42
2022-11-22T23:24:16.561Z,0.90
2022-11-22T23:29:18.014Z,1.33
2022-11-22T23:34:19.854Z,0.90
2022-11-22T23:39:21.207Z,0.80
2022-11-22T23:44:22.547Z,0.80
2022-11-22T23:49:23.913Z,0.75
2022-11-22T23:54:25.246Z,0.85
2022-11-22T23:59:26.576Z,0.90
